createdAt,value
2017-11-26T00:00:22.131Z,58.00
2017-11-26T00:02:50.420Z,58.00
2017-11-26T00:05:18.681Z,57.90
2017-11-26T00:07:46.954Z,57.90
2017-11-26T00:10:15.257Z,57.80
2017-11-26T00:12:42.780Z,57.70
2017-11-26T00:15:10.311Z,57.80
2017-11-26T00:17:37.811Z,57.90
2017-11-26T00:20:06.101Z,57.80
2017-11-26T00:22:34.369Z,57.80
2017-11-26T00:25:01.896Z,57.80
2017-11-26T00:27:29.397Z,57.80
2017-11-26T00:29:57.689Z,57.40
2017-11-26T00:32:25.190Z,57.40
2017-11-26T00:34:52.736Z,57.60
2017-11-26T00:37:20.249Z,57.30
2017-11-26T00:39:48.516Z,57.30
2017-11-26T00:42:16.804Z,57.40
2017-11-26T00:44:45.068Z,57.40
2017-11-26T00:47:13.362Z,56.80
2017-11-26T00:49:40.860Z,56.80
2017-11-26T00:52:08.385Z,56.70
2017-11-26T00:54:35.870Z,56.60
2017-11-26T00:57:03.389Z,56.60
2017-11-26T00:59:31.648Z,56.70
2017-11-26T01:01:59.163Z,56.70
2017-11-26T01:04:26.661Z,56.70
2017-11-26T01:06:54.969Z,57.10
2017-11-26T01:09:22.476Z,56.40
2017-11-26T01:11:50.017Z,56.60
2017-11-26T01:14:17.521Z,56.70
2017-11-26T01:16:45.016Z,56.70
2017-11-26T01:19:12.539Z,56.70
2017-11-26T01:21:40.810Z,56.40
2017-11-26T01:24:08.327Z,56.30
2017-11-26T01:26:35.829Z,56.30
2017-11-26T01:29:03.348Z,56.30
2017-11-26T01:31:30.849Z,56.20
2017-11-26T01:33:58.371Z,56.20
2017-11-26T01:36:25.875Z,56.20
2017-11-26T01:38:54.159Z,56.10
2017-11-26T01:41:22.437Z,56.20
2017-11-26T01:43:49.952Z,56.00
2017-11-26T01:46:17.452Z,56.20
2017-11-26T01:48:44.992Z,56.50
2017-11-26T01:51:12.506Z,56.40
2017-11-26T01:53:40.024Z,56.30
2017-11-26T01:56:08.284Z,56.40
2017-11-26T01:58:35.832Z,56.40
2017-11-26T02:01:03.371Z,56.40
2017-11-26T02:03:30.858Z,56.10
2017-11-26T02:05:58.367Z,56.20
2017-11-26T02:08:25.867Z,56.40
2017-11-26T02:10:53.384Z,56.50
2017-11-26T02:13:20.883Z,56.60
2017-11-26T02:15:48.425Z,56.80
2017-11-26T02:18:15.919Z,56.90
2017-11-26T02:20:43.432Z,57.00
2017-11-26T02:23:10.928Z,57.20
2017-11-26T02:25:38.454Z,57.40
2017-11-26T02:28:05.952Z,57.50
2017-11-26T02:30:33.481Z,57.50
2017-11-26T02:33:12.788Z,57.40
2017-11-26T02:35:40.308Z,57.40
2017-11-26T02:38:07.804Z,57.60
2017-11-26T02:40:35.319Z,57.70
2017-11-26T02:43:02.839Z,57.80
2017-11-26T02:45:30.375Z,57.80
2017-11-26T02:47:57.876Z,57.80
2017-11-26T02:50:25.399Z,57.80
2017-11-26T02:52:52.916Z,57.80
2017-11-26T02:55:20.419Z,57.70
2017-11-26T02:57:47.944Z,57.70
2017-11-26T03:00:15.445Z,57.70
2017-11-26T03:02:42.965Z,57.70
2017-11-26T03:05:11.236Z,57.80
2017-11-26T03:07:38.750Z,57.80
2017-11-26T03:10:06.268Z,57.80
2017-11-26T03:12:34.555Z,58.10
2017-11-26T03:15:02.819Z,58.20
2017-11-26T03:17:30.368Z,58.10
2017-11-26T03:19:57.884Z,58.20
2017-11-26T03:22:25.394Z,58.20
2017-11-26T03:24:53.680Z,58.20
2017-11-26T03:27:21.950Z,58.20
2017-11-26T03:29:50.258Z,58.20
2017-11-26T03:32:17.764Z,58.20
2017-11-26T03:34:45.291Z,58.20
2017-11-26T03:37:12.787Z,58.10
2017-11-26T03:39:40.308Z,57.90
2017-11-26T03:42:07.804Z,58.00
2017-11-26T03:44:35.320Z,58.10
2017-11-26T03:47:02.815Z,58.10
2017-11-26T03:49:30.329Z,58.10
2017-11-26T03:51:57.841Z,58.20
2017-11-26T03:54:25.369Z,58.20
2017-11-26T03:56:53.637Z,58.00
2017-11-26T03:59:21.144Z,57.90
2017-11-26T04:01:48.669Z,57.90
2017-11-26T04:04:16.176Z,57.70
2017-11-26T04:06:44.467Z,57.90
2017-11-26T04:09:12.047Z,57.70
2017-11-26T04:11:39.582Z,57.70
2017-11-26T04:14:07.851Z,57.50
2017-11-26T04:16:36.139Z,57.40
2017-11-26T04:19:03.640Z,57.30
2017-11-26T04:21:31.168Z,57.20
2017-11-26T04:23:58.688Z,57.40
2017-11-26T04:26:26.208Z,57.60
2017-11-26T04:28:53.716Z,57.80
2017-11-26T04:31:22.004Z,57.80
2017-11-26T04:33:49.519Z,57.80
2017-11-26T04:36:17.036Z,57.60
2017-11-26T04:38:44.540Z,57.30
2017-11-26T04:41:12.077Z,57.40
2017-11-26T04:43:39.592Z,57.30
2017-11-26T04:46:07.861Z,56.90
2017-11-26T04:48:35.384Z,56.90
2017-11-26T04:51:02.888Z,57.00
2017-11-26T04:53:31.167Z,56.90
2017-11-26T04:55:59.434Z,56.80
2017-11-26T04:58:27.751Z,56.70
2017-11-26T05:00:55.221Z,56.70
2017-11-26T05:03:22.728Z,56.60
2017-11-26T05:05:50.223Z,56.30
2017-11-26T05:08:17.748Z,56.20
2017-11-26T05:10:46.008Z,55.90
2017-11-26T05:13:13.548Z,55.80
2017-11-26T05:15:41.087Z,55.90
2017-11-26T05:18:08.587Z,55.90
2017-11-26T05:20:36.105Z,56.00
2017-11-26T05:23:03.612Z,56.00
2017-11-26T05:25:31.131Z,56.10
2017-11-26T05:27:58.648Z,56.30
2017-11-26T05:30:26.911Z,56.30
2017-11-26T05:32:54.454Z,56.30
2017-11-26T05:35:21.956Z,56.30
2017-11-26T05:37:49.479Z,55.80
2017-11-26T05:40:17.004Z,55.90
2017-11-26T05:42:44.494Z,55.50
2017-11-26T05:45:12.013Z,55.40
2017-11-26T05:47:39.524Z,54.90
2017-11-26T05:50:07.036Z,55.10
2017-11-26T05:52:34.532Z,55.00
2017-11-26T05:55:02.060Z,55.10
2017-11-26T05:57:29.587Z,55.10
2017-11-26T05:59:57.100Z,54.90
2017-11-26T06:02:24.616Z,54.80
2017-11-26T06:04:52.174Z,55.00
2017-11-26T06:07:19.659Z,54.90
2017-11-26T06:09:47.171Z,55.00
2017-11-26T06:12:15.424Z,55.20
2017-11-26T06:14:42.940Z,55.10
2017-11-26T06:17:10.460Z,55.30
2017-11-26T06:19:38.739Z,55.60
2017-11-26T06:22:07.004Z,55.80
2017-11-26T06:24:34.610Z,55.80
2017-11-26T06:27:02.896Z,55.70
2017-11-26T06:29:30.391Z,55.60
2017-11-26T06:31:57.903Z,55.60
2017-11-26T06:34:25.395Z,55.50
2017-11-26T06:36:52.920Z,55.20
2017-11-26T06:39:20.412Z,55.10
2017-11-26T06:41:47.918Z,55.30
2017-11-26T06:44:15.428Z,55.30
2017-11-26T06:46:42.943Z,55.20
2017-11-26T06:49:10.448Z,55.30
2017-11-26T06:51:37.959Z,55.50
2017-11-26T06:54:05.454Z,55.60
2017-11-26T06:56:32.970Z,55.30
2017-11-26T06:59:00.462Z,55.10
2017-11-26T07:01:27.976Z,55.00
2017-11-26T07:03:56.259Z,54.70
2017-11-26T07:06:23.818Z,54.60
2017-11-26T07:08:52.084Z,53.80
2017-11-26T07:11:20.366Z,53.70
2017-11-26T07:13:48.624Z,54.00
2017-11-26T07:16:16.125Z,53.90
2017-11-26T07:18:43.643Z,54.10
2017-11-26T07:21:11.146Z,53.90
2017-11-26T07:23:38.660Z,54.10
2017-11-26T07:26:06.940Z,54.00
2017-11-26T07:28:34.460Z,54.00
2017-11-26T07:31:01.976Z,54.00
2017-11-26T07:33:30.251Z,53.90
2017-11-26T07:35:58.512Z,53.80
2017-11-26T07:38:26.028Z,53.70
2017-11-26T07:40:53.536Z,53.60
2017-11-26T07:43:21.836Z,53.00
2017-11-26T07:45:49.331Z,52.90
2017-11-26T07:48:16.850Z,52.60
2017-11-26T07:50:44.352Z,52.90
2017-11-26T07:53:11.869Z,53.20
2017-11-26T07:55:39.407Z,53.20
2017-11-26T07:58:07.691Z,53.60
2017-11-26T08:00:35.200Z,53.50
2017-11-26T08:03:02.744Z,53.70
2017-11-26T08:05:30.239Z,53.00
2017-11-26T08:07:57.736Z,53.00
2017-11-26T08:10:26.020Z,53.50
2017-11-26T08:12:53.568Z,53.50
2017-11-26T08:15:21.847Z,53.90
2017-11-26T08:17:49.351Z,53.80
2017-11-26T08:20:16.868Z,53.90
2017-11-26T08:22:45.136Z,53.70
2017-11-26T08:25:13.431Z,53.30
2017-11-26T08:27:40.932Z,53.30
2017-11-26T08:30:08.436Z,53.10
2017-11-26T08:32:36.722Z,53.60
2017-11-26T08:35:04.223Z,53.00
2017-11-26T08:37:31.736Z,53.30
2017-11-26T08:39:59.243Z,53.40
2017-11-26T08:42:27.527Z,52.90
2017-11-26T08:44:55.037Z,52.90
2017-11-26T08:47:22.570Z,52.60
2017-11-26T08:49:50.839Z,53.00
2017-11-26T08:52:18.376Z,52.90
2017-11-26T08:54:45.883Z,52.80
2017-11-26T08:57:14.151Z,52.70
2017-11-26T08:59:42.443Z,52.90
2017-11-26T09:02:09.937Z,52.90
2017-11-26T09:04:37.461Z,53.10
2017-11-26T09:07:10.724Z,52.80
2017-11-26T09:09:38.244Z,52.80
2017-11-26T09:12:05.752Z,52.30
2017-11-26T09:14:34.052Z,52.10
2017-11-26T09:17:01.578Z,51.90
2017-11-26T09:19:29.107Z,52.30
2017-11-26T09:21:56.603Z,52.00
2017-11-26T09:24:24.893Z,51.50
2017-11-26T09:26:53.170Z,50.80
2017-11-26T09:29:21.472Z,50.50
2017-11-26T09:31:48.976Z,50.50
2017-11-26T09:34:16.587Z,50.90
2017-11-26T09:36:44.089Z,51.40
2017-11-26T09:39:11.632Z,51.00
2017-11-26T09:41:39.181Z,51.10
2017-11-26T09:44:06.684Z,50.60
2017-11-26T09:46:34.228Z,50.20
2017-11-26T09:49:01.732Z,50.60
2017-11-26T09:51:29.255Z,51.10
2017-11-26T09:53:56.751Z,51.50
2017-11-26T09:56:24.266Z,51.60
2017-11-26T09:58:51.772Z,51.10
2017-11-26T10:01:19.292Z,50.90
2017-11-26T10:03:46.789Z,50.50
2017-11-26T10:06:14.312Z,51.10
2017-11-26T10:08:41.827Z,50.50
2017-11-26T10:11:09.399Z,50.70
2017-11-26T10:13:36.896Z,50.40
2017-11-26T10:16:04.411Z,50.70
2017-11-26T10:18:31.904Z,50.00
2017-11-26T10:20:59.427Z,49.90
2017-11-26T10:23:26.924Z,50.30
2017-11-26T10:25:54.447Z,50.60
2017-11-26T10:28:21.971Z,50.90
2017-11-26T10:30:50.263Z,50.40
2017-11-26T10:33:17.768Z,50.30
2017-11-26T10:35:45.259Z,50.50
2017-11-26T10:38:13.541Z,50.00
2017-11-26T10:40:41.803Z,50.30
2017-11-26T10:43:10.088Z,50.90
2017-11-26T10:45:38.408Z,51.50
2017-11-26T10:48:05.952Z,51.40
2017-11-26T10:50:33.454Z,51.10
2017-11-26T10:53:00.961Z,51.20
2017-11-26T10:55:28.471Z,51.30
2017-11-26T10:57:55.988Z,51.00
2017-11-26T11:00:23.484Z,50.40
2017-11-26T11:02:51.011Z,50.80
2017-11-26T11:05:18.530Z,50.60
2017-11-26T11:07:46.852Z,51.20
2017-11-26T11:10:14.352Z,51.10
2017-11-26T11:12:41.851Z,50.90
2017-11-26T11:15:09.372Z,50.80
2017-11-26T11:17:36.881Z,51.30
2017-11-26T11:20:04.423Z,51.70
2017-11-26T11:22:31.935Z,51.10
2017-11-26T11:24:59.475Z,51.10
2017-11-26T11:27:27.001Z,50.50
2017-11-26T11:29:54.521Z,49.90
2017-11-26T11:32:22.033Z,49.40
2017-11-26T11:34:49.542Z,47.90
2017-11-26T11:37:17.067Z,48.70
2017-11-26T11:39:44.568Z,48.60
2017-11-26T11:42:12.864Z,49.10
2017-11-26T11:44:41.840Z,49.50
2017-11-26T11:47:10.183Z,50.00
2017-11-26T11:49:37.684Z,50.00
2017-11-26T11:52:05.945Z,51.60
2017-11-26T11:54:33.459Z,51.50
2017-11-26T11:57:00.961Z,52.00
2017-11-26T11:59:28.499Z,51.90
2017-11-26T12:01:56.000Z,52.00
2017-11-26T12:04:24.275Z,51.10
2017-11-26T12:06:52.541Z,51.50
2017-11-26T12:09:20.846Z,51.60
2017-11-26T12:11:48.376Z,51.50
2017-11-26T12:14:15.909Z,51.50
2017-11-26T12:16:43.436Z,51.30
2017-11-26T12:19:10.991Z,51.70
2017-11-26T12:21:38.517Z,51.50
2017-11-26T12:24:06.052Z,51.80
2017-11-26T12:26:33.585Z,52.20
2017-11-26T12:29:01.872Z,52.80
2017-11-26T12:31:29.380Z,52.80
2017-11-26T12:33:57.690Z,53.40
2017-11-26T12:36:25.205Z,53.40
2017-11-26T12:38:52.754Z,53.50
2017-11-26T12:41:20.253Z,53.20
2017-11-26T12:43:48.511Z,52.80
2017-11-26T12:46:16.796Z,51.90
2017-11-26T12:48:44.292Z,51.90
2017-11-26T12:51:11.807Z,52.00
2017-11-26T12:53:40.068Z,51.70
2017-11-26T12:56:07.588Z,51.60
2017-11-26T12:58:35.086Z,51.30
2017-11-26T13:01:02.611Z,51.30
2017-11-26T13:03:30.108Z,51.40
2017-11-26T13:05:57.622Z,50.50
2017-11-26T13:08:25.120Z,50.00
2017-11-26T13:10:52.656Z,49.30
2017-11-26T13:13:20.200Z,49.50
2017-11-26T13:15:47.724Z,49.60
2017-11-26T13:18:15.238Z,49.70
2017-11-26T13:20:42.760Z,50.20
2017-11-26T13:23:10.275Z,50.60
2017-11-26T13:25:37.776Z,50.40
2017-11-26T13:28:05.324Z,49.60
2017-11-26T13:30:32.832Z,49.40
2017-11-26T13:33:00.362Z,49.70
2017-11-26T13:35:27.892Z,49.50
2017-11-26T13:37:56.189Z,50.30
2017-11-26T13:40:23.697Z,50.20
2017-11-26T13:42:51.220Z,50.30
2017-11-26T13:45:18.724Z,50.60
2017-11-26T13:47:46.260Z,50.20
2017-11-26T13:50:13.769Z,50.30
2017-11-26T13:52:42.065Z,49.60
2017-11-26T13:55:09.594Z,49.50
2017-11-26T13:57:37.904Z,50.00
2017-11-26T14:00:05.429Z,49.80
2017-11-26T14:02:33.724Z,49.80
2017-11-26T14:05:02.001Z,50.10
2017-11-26T14:07:30.305Z,50.00
2017-11-26T14:09:57.820Z,50.00
2017-11-26T14:12:26.124Z,49.90
2017-11-26T14:14:53.648Z,49.80
2017-11-26T14:17:21.168Z,50.60
2017-11-26T14:19:48.682Z,50.50
2017-11-26T14:22:17.003Z,50.70
2017-11-26T14:24:44.520Z,50.70
2017-11-26T14:27:12.808Z,50.60
2017-11-26T14:29:40.336Z,50.60
2017-11-26T14:32:07.852Z,50.70
2017-11-26T14:34:35.391Z,50.60
2017-11-26T14:37:02.909Z,50.90
2017-11-26T14:39:30.439Z,51.00
2017-11-26T14:41:57.989Z,51.00
2017-11-26T14:44:25.534Z,51.20
2017-11-26T14:46:53.069Z,51.30
2017-11-26T14:49:21.392Z,51.30
2017-11-26T14:51:48.901Z,51.20
2017-11-26T14:54:17.208Z,51.60
2017-11-26T14:56:44.727Z,51.60
2017-11-26T14:59:12.257Z,51.40
2017-11-26T15:01:39.764Z,51.50
2017-11-26T15:04:08.107Z,52.40
2017-11-26T15:06:35.616Z,52.30
2017-11-26T15:09:03.158Z,52.80
2017-11-26T15:11:31.596Z,53.20
2017-11-26T15:13:59.163Z,53.10
2017-11-26T15:16:26.693Z,53.20
2017-11-26T15:18:54.220Z,53.30
2017-11-26T15:21:22.505Z,53.60
2017-11-26T15:23:50.048Z,53.50
2017-11-26T15:26:17.577Z,53.60
2017-11-26T15:28:45.137Z,53.50
2017-11-26T15:31:12.638Z,53.40
2017-11-26T15:33:40.972Z,53.20
2017-11-26T15:36:08.443Z,53.80
2017-11-26T15:38:35.968Z,53.10
2017-11-26T15:41:03.486Z,53.10
2017-11-26T15:43:31.825Z,53.00
2017-11-26T15:45:59.336Z,53.00
2017-11-26T15:48:26.865Z,52.90
2017-11-26T15:50:54.388Z,52.90
2017-11-26T15:53:21.904Z,52.60
2017-11-26T15:55:50.201Z,52.40
2017-11-26T15:58:17.722Z,52.30
2017-11-26T16:00:45.252Z,52.20
2017-11-26T16:03:12.760Z,52.10
2017-11-26T16:05:40.295Z,51.70
2017-11-26T16:08:07.816Z,51.60
2017-11-26T16:10:35.336Z,51.50
2017-11-26T16:13:03.631Z,52.40
2017-11-26T16:15:31.165Z,52.30
2017-11-26T16:17:59.461Z,52.80
2017-11-26T16:20:27.005Z,52.60
2017-11-26T16:22:55.274Z,53.30
2017-11-26T16:25:22.792Z,53.20
2017-11-26T16:27:50.305Z,53.50
2017-11-26T16:30:18.598Z,53.90
2017-11-26T16:32:46.100Z,53.90
2017-11-26T16:35:13.648Z,54.70
2017-11-26T16:37:41.159Z,54.20
2017-11-26T16:40:09.726Z,54.30
2017-11-26T16:42:37.266Z,54.20
2017-11-26T16:45:04.981Z,54.70
2017-11-26T16:47:33.286Z,54.80
2017-11-26T16:50:06.016Z,54.70
2017-11-26T16:52:33.687Z,54.60
2017-11-26T16:55:01.992Z,54.70
2017-11-26T16:57:29.513Z,54.60
2017-11-26T16:59:57.818Z,54.50
2017-11-26T17:02:25.333Z,54.40
2017-11-26T17:04:52.862Z,54.40
2017-11-26T17:07:20.379Z,54.80
2017-11-26T17:09:47.924Z,54.90
2017-11-26T17:12:15.454Z,55.10
2017-11-26T17:14:43.818Z,55.30
2017-11-26T17:17:11.343Z,55.30
2017-11-26T17:19:38.880Z,55.20
2017-11-26T17:22:06.393Z,55.30
2017-11-26T17:24:33.929Z,55.50
2017-11-26T17:27:01.462Z,55.50
2017-11-26T17:29:28.982Z,55.30
2017-11-26T17:31:56.536Z,55.40
2017-11-26T17:34:24.069Z,55.30
2017-11-26T17:36:51.604Z,55.30
2017-11-26T17:39:19.908Z,55.60
2017-11-26T17:41:47.446Z,55.60
2017-11-26T17:44:15.732Z,55.70
2017-11-26T17:46:44.169Z,55.20
2017-11-26T17:49:11.697Z,55.10
2017-11-26T17:51:39.254Z,55.10
2017-11-26T17:54:06.781Z,55.30
2017-11-26T17:56:34.337Z,55.00
2017-11-26T17:59:02.616Z,55.60
2017-11-26T18:01:31.290Z,55.10
2017-11-26T18:03:58.827Z,55.00
2017-11-26T18:06:27.384Z,54.80
2017-11-26T18:08:54.908Z,55.00
2017-11-26T18:11:23.213Z,55.10
2017-11-26T18:13:50.728Z,55.00
2017-11-26T18:16:18.303Z,55.10
2017-11-26T18:18:46.650Z,55.40
2017-11-26T18:21:14.174Z,55.20
2017-11-26T18:23:41.704Z,55.30
2017-11-26T18:26:09.982Z,55.30
2017-11-26T18:28:38.300Z,55.20
2017-11-26T18:31:05.875Z,55.10
2017-11-26T18:33:33.416Z,55.00
2017-11-26T18:36:01.008Z,54.80
2017-11-26T18:38:28.549Z,54.90
2017-11-26T18:40:56.064Z,55.00
2017-11-26T18:43:24.349Z,54.90
2017-11-26T18:45:51.869Z,54.90
2017-11-26T18:48:19.392Z,54.90
2017-11-26T18:50:46.966Z,55.00
2017-11-26T18:53:14.521Z,55.10
2017-11-26T18:55:42.057Z,55.10
2017-11-26T18:58:09.592Z,55.10
2017-11-26T19:00:37.874Z,55.10
2017-11-26T19:03:06.163Z,55.10
2017-11-26T19:05:33.683Z,55.10
2017-11-26T19:08:01.200Z,55.20
2017-11-26T19:10:29.633Z,55.30
2017-11-26T19:12:57.139Z,55.40
2017-11-26T19:15:26.593Z,55.60
2017-11-26T19:17:54.126Z,55.50
2017-11-26T19:20:21.631Z,55.60
2017-11-26T19:22:49.888Z,55.60
2017-11-26T19:25:18.377Z,55.50
2017-11-26T19:27:46.701Z,55.90
2017-11-26T19:30:14.231Z,55.60
2017-11-26T19:32:41.732Z,55.70
2017-11-26T19:35:09.258Z,55.80
2017-11-26T19:37:36.772Z,55.90
2017-11-26T19:40:04.289Z,55.90
2017-11-26T19:42:31.808Z,55.90
2017-11-26T19:44:59.336Z,56.00
2017-11-26T19:47:26.846Z,56.10
2017-11-26T19:49:54.422Z,56.00
2017-11-26T19:52:21.973Z,56.00
2017-11-26T19:54:49.443Z,56.00
2017-11-26T19:57:16.969Z,56.10
2017-11-26T19:59:45.242Z,56.00
2017-11-26T20:02:12.762Z,56.00
2017-11-26T20:04:40.301Z,56.00
2017-11-26T20:07:07.823Z,56.00
2017-11-26T20:09:35.335Z,56.00
2017-11-26T20:12:02.902Z,56.00
2017-11-26T20:14:31.419Z,56.20
2017-11-26T20:16:58.985Z,56.10
2017-11-26T20:19:26.565Z,56.40
2017-11-26T20:21:54.110Z,56.20
2017-11-26T20:24:22.477Z,56.40
2017-11-26T20:26:50.778Z,56.30
2017-11-26T20:29:19.068Z,56.30
2017-11-26T20:31:46.583Z,56.30
2017-11-26T20:34:14.146Z,56.30
2017-11-26T20:36:41.675Z,56.30
2017-11-26T20:39:12.436Z,56.30
2017-11-26T20:41:39.970Z,56.40
2017-11-26T20:44:07.472Z,56.40
2017-11-26T20:46:35.761Z,56.50
2017-11-26T20:49:04.073Z,56.40
2017-11-26T20:51:31.613Z,56.30
2017-11-26T20:53:59.128Z,56.20
2017-11-26T20:56:26.652Z,56.30
2017-11-26T20:58:54.159Z,56.30
2017-11-26T21:01:23.558Z,57.00
2017-11-26T21:03:51.828Z,56.30
2017-11-26T21:06:19.375Z,56.40
2017-11-26T21:08:46.887Z,56.50
2017-11-26T21:11:14.417Z,56.10
2017-11-26T21:13:42.735Z,56.20
2017-11-26T21:16:10.265Z,56.10
2017-11-26T21:18:38.528Z,56.20
2017-11-26T21:21:06.043Z,56.20
2017-11-26T21:23:33.544Z,56.40
2017-11-26T21:26:01.058Z,56.30
2017-11-26T21:28:28.567Z,56.30
2017-11-26T21:30:56.864Z,56.40
2017-11-26T21:33:24.367Z,56.30
2017-11-26T21:35:51.876Z,56.40
2017-11-26T21:38:20.164Z,56.40
2017-11-26T21:40:47.661Z,56.20
2017-11-26T21:43:15.191Z,56.40
2017-11-26T21:45:42.764Z,56.40
2017-11-26T21:48:10.305Z,56.40
2017-11-26T21:50:37.804Z,56.50
2017-11-26T21:53:05.355Z,56.50
2017-11-26T21:55:32.877Z,56.50
2017-11-26T21:58:00.387Z,56.50
2017-11-26T22:00:27.881Z,56.40
2017-11-26T22:02:55.403Z,56.40
2017-11-26T22:05:22.904Z,56.40
2017-11-26T22:07:51.190Z,56.50
2017-11-26T22:10:18.698Z,56.50
2017-11-26T22:12:46.217Z,56.60
2017-11-26T22:15:13.745Z,56.60
2017-11-26T22:17:41.257Z,56.60
2017-11-26T22:20:08.761Z,56.60
2017-11-26T22:22:36.285Z,56.20
2017-11-26T22:25:03.775Z,56.00
2017-11-26T22:27:31.294Z,55.90
2017-11-26T22:29:58.797Z,56.00
2017-11-26T22:32:27.093Z,56.10
2017-11-26T22:34:55.376Z,56.10
2017-11-26T22:37:23.668Z,56.10
2017-11-26T22:39:51.230Z,56.10
2017-11-26T22:42:18.745Z,56.00
2017-11-26T22:44:46.270Z,55.90
2017-11-26T22:47:13.773Z,55.90
2017-11-26T22:49:42.060Z,55.80
2017-11-26T22:52:09.577Z,55.80
2017-11-26T22:54:37.109Z,55.90
2017-11-26T22:57:04.632Z,55.90
2017-11-26T22:59:32.917Z,56.00
2017-11-26T23:02:00.441Z,55.90
2017-11-26T23:04:27.961Z,55.80
2017-11-26T23:06:55.456Z,55.80
2017-11-26T23:09:22.971Z,56.00
2017-11-26T23:11:50.496Z,55.90
2017-11-26T23:14:18.776Z,56.10
2017-11-26T23:16:47.037Z,56.00
2017-11-26T23:19:14.580Z,56.00
2017-11-26T23:21:42.085Z,56.00
2017-11-26T23:24:10.360Z,56.10
2017-11-26T23:26:37.879Z,56.10
2017-11-26T23:29:05.381Z,56.10
2017-11-26T23:31:33.661Z,56.10
2017-11-26T23:34:01.161Z,56.60
2017-11-26T23:36:28.675Z,56.00
2017-11-26T23:38:56.176Z,55.80
2017-11-26T23:41:23.705Z,55.80
2017-11-26T23:43:51.228Z,55.90
2017-11-26T23:46:18.739Z,56.00
2017-11-26T23:48:46.245Z,56.00
2017-11-26T23:51:13.761Z,55.80
2017-11-26T23:53:41.258Z,56.00
2017-11-26T23:56:08.817Z,56.00
2017-11-26T23:58:36.316Z,56.00
